Time;durP1;ratioP1;P1;durP2;ratioP2;P2;SDS_P1;SDS_P2;PMS_P1;PMS_P2;Temp;Humidity;BMP_temperature;BMP_pressure;BME280_temperature;BME280_humidity;BME280_pressure;Samples;Min_cycle;Max_cycle;Signal;HPM_P1;HPM_P2
2023/12/10 00:00:07;;;;;;;33.42;6.30;;;8.30;99.90;;;;;;5003409;28;20046;-71
2023/12/10 00:02:33;;;;;;;30.50;6.78;;;8.40;99.90;;;;;;5018975;28;20038;-72
2023/12/10 00:04:59;;;;;;;30.13;6.60;;;8.30;99.90;;;;;;4994827;28;20306;-72
2023/12/10 00:07:25;;;;;;;34.30;6.80;;;8.30;99.90;;;;;;5006403;28;20035;-73
2023/12/10 00:09:51;;;;;;;30.95;6.68;;;8.30;99.90;;;;;;5062011;27;20094;-72
2023/12/10 00:12:17;;;;;;;27.70;6.80;;;8.30;99.90;;;;;;4989405;28;20036;-72
2023/12/10 00:14:43;;;;;;;27.13;6.82;;;8.30;99.90;;;;;;5007085;28;20039;-72
2023/12/10 00:17:09;;;;;;;28.85;7.85;;;8.40;99.90;;;;;;5032383;28;20148;-71
2023/12/10 00:19:34;;;;;;;34.05;6.93;;;8.40;99.90;;;;;;5016134;27;20421;-72
2023/12/10 00:22:04;;;;;;;30.98;7.57;;;8.40;99.90;;;;;;5004198;28;20077;-72
2023/12/10 00:24:29;;;;;;;30.33;7.13;;;8.40;99.90;;;;;;4986506;28;20071;-72
2023/12/10 00:26:55;;;;;;;27.17;6.65;;;8.40;99.90;;;;;;5018733;28;20051;-72
2023/12/10 00:29:21;;;;;;;30.10;6.60;;;8.40;99.90;;;;;;5026696;28;20050;-71
2023/12/10 00:31:47;;;;;;;31.42;7.18;;;8.30;99.90;;;;;;4988574;28;20123;-72
2023/12/10 00:34:13;;;;;;;34.17;6.82;;;8.30;99.90;;;;;;5027809;28;20047;-71
2023/12/10 00:36:39;;;;;;;30.10;7.25;;;8.30;99.90;;;;;;4982113;28;20541;-72
2023/12/10 00:39:06;;;;;;;29.58;6.40;;;8.40;99.90;;;;;;4996306;28;20051;-71
2023/12/10 00:41:32;;;;;;;29.33;6.85;;;8.40;99.90;;;;;;4996269;28;20047;-71
2023/12/10 00:43:58;;;;;;;27.98;7.15;;;8.40;99.90;;;;;;5037035;28;20083;-70
2023/12/10 00:46:24;;;;;;;27.20;6.60;;;8.40;99.90;;;;;;4994889;28;20517;-71
2023/12/10 00:48:50;;;;;;;26.27;6.32;;;8.50;99.90;;;;;;5013302;28;20104;-71
2023/12/10 00:51:19;;;;;;;23.08;5.30;;;8.50;99.90;;;;;;4984676;28;20050;-70
2023/12/10 00:53:46;;;;;;;25.30;5.32;;;8.60;99.90;;;;;;4979030;28;20150;-69
2023/12/10 00:56:11;;;;;;;19.60;5.30;;;8.60;99.90;;;;;;4981967;28;20065;-69
2023/12/10 00:58:37;;;;;;;19.73;4.63;;;8.60;99.90;;;;;;4988895;28;20035;-69
2023/12/10 01:01:04;;;;;;;23.95;5.30;;;8.60;99.90;;;;;;4999609;28;20060;-69
2023/12/10 01:03:30;;;;;;;22.33;5.15;;;8.60;99.90;;;;;;5009868;28;20050;-69
2023/12/10 01:05:55;;;;;;;23.88;5.28;;;8.60;99.90;;;;;;5058338;28;20088;-69
2023/12/10 01:08:22;;;;;;;20.88;5.22;;;8.50;99.90;;;;;;4964023;28;20050;-69
2023/12/10 01:10:48;;;;;;;24.70;5.93;;;8.50;99.90;;;;;;4988658;28;20034;-70
2023/12/10 01:13:14;;;;;;;22.83;5.30;;;8.40;99.90;;;;;;5019096;28;20119;-70
2023/12/10 01:15:40;;;;;;;24.25;5.10;;;8.40;99.90;;;;;;4985188;28;20050;-70
2023/12/10 01:18:06;;;;;;;22.92;5.20;;;8.30;99.90;;;;;;4974201;28;20050;-70
2023/12/10 01:20:32;;;;;;;26.02;6.18;;;8.30;99.90;;;;;;4999622;28;20092;-71
2023/12/10 01:22:59;;;;;;;31.52;6.72;;;8.20;99.90;;;;;;5008720;28;20059;-70
2023/12/10 01:25:25;;;;;;;31.05;5.93;;;8.20;99.90;;;;;;4964578;28;20125;-69
2023/12/10 01:27:52;;;;;;;34.33;7.15;;;8.10;99.90;;;;;;4997733;28;20112;-71
2023/12/10 01:30:23;;;;;;;33.88;6.57;;;8.10;99.90;;;;;;4971269;28;20034;-71
2023/12/10 01:32:56;;;;;;;25.08;6.05;;;8.10;99.90;;;;;;4971807;28;20096;-71
2023/12/10 01:35:21;;;;;;;28.77;5.88;;;8.10;99.90;;;;;;4995730;28;20368;-72
2023/12/10 01:37:47;;;;;;;27.65;5.72;;;8.00;99.90;;;;;;5015002;27;20042;-71
2023/12/10 01:40:13;;;;;;;29.00;6.63;;;8.00;99.90;;;;;;5003372;28;20042;-72
2023/12/10 01:42:41;;;;;;;31.92;5.93;;;8.00;99.90;;;;;;5014786;28;20042;-72
2023/12/10 01:45:08;;;;;;;32.97;6.03;;;8.00;99.90;;;;;;4965554;28;20686;-72
2023/12/10 01:47:40;;;;;;;30.27;6.22;;;8.00;99.90;;;;;;5013143;28;20045;-72
2023/12/10 01:50:15;;;;;;;31.35;6.25;;;8.00;99.90;;;;;;4996609;28;20048;-71
2023/12/10 01:52:42;;;;;;;28.85;6.53;;;7.90;99.90;;;;;;4983704;28;20089;-73
2023/12/10 01:55:09;;;;;;;26.08;6.10;;;8.00;99.90;;;;;;5055104;27;20834;-72
2023/12/10 01:57:36;;;;;;;29.13;5.95;;;7.90;99.90;;;;;;4996578;28;20053;-72
2023/12/10 02:00:07;;;;;;;31.15;6.13;;;7.90;99.90;;;;;;5003855;28;20074;-72
2023/12/10 02:02:36;;;;;;;28.55;6.13;;;7.90;99.90;;;;;;4973850;28;20050;-72
2023/12/10 02:05:06;;;;;;;29.43;6.57;;;7.90;99.90;;;;;;5053960;27;20456;-71
2023/12/10 02:07:32;;;;;;;36.43;6.87;;;7.90;99.90;;;;;;4990459;28;20081;-73
2023/12/10 02:09:58;;;;;;;33.88;7.40;;;7.90;99.90;;;;;;4989263;28;20809;-71
2023/12/10 02:12:24;;;;;;;35.40;6.97;;;7.90;99.90;;;;;;4982266;28;20049;-71
2023/12/10 02:14:50;;;;;;;34.65;6.82;;;7.90;99.90;;;;;;5015085;28;20092;-71
2023/12/10 02:17:16;;;;;;;35.63;7.47;;;7.90;99.90;;;;;;4965242;28;20155;-71
2023/12/10 02:19:45;;;;;;;35.42;6.90;;;7.90;99.90;;;;;;4982295;28;20054;-71
2023/12/10 02:22:13;;;;;;;43.70;8.88;;;7.90;99.90;;;;;;4979776;28;20046;-71
2023/12/10 02:24:48;;;;;;;33.42;6.95;;;7.90;99.90;;;;;;4989178;28;20495;-72
2023/12/10 02:27:15;;;;;;;33.42;7.25;;;7.90;99.90;;;;;;5019535;28;20050;-71
2023/12/10 02:29:41;;;;;;;29.90;7.05;;;7.90;99.90;;;;;;5016997;27;20493;-71
2023/12/10 02:32:07;;;;;;;34.53;8.00;;;7.90;99.90;;;;;;5008610;28;20050;-71
2023/12/10 02:34:36;;;;;;;33.80;6.90;;;7.90;99.90;;;;;;4972117;28;20051;-72
2023/12/10 02:37:02;;;;;;;32.22;6.90;;;7.90;99.90;;;;;;4994115;28;20050;-71
2023/12/10 02:39:28;;;;;;;29.35;6.43;;;7.90;99.90;;;;;;5014748;28;20044;-72
2023/12/10 02:41:54;;;;;;;38.80;7.65;;;7.90;99.90;;;;;;5010245;28;20497;-71
2023/12/10 02:44:20;;;;;;;30.15;6.97;;;7.90;99.90;;;;;;4990461;28;20103;-74
2023/12/10 02:46:49;;;;;;;34.05;6.88;;;7.90;99.90;;;;;;5004717;28;20391;-70
2023/12/10 02:49:15;;;;;;;30.10;6.90;;;7.90;99.90;;;;;;4982057;28;20618;-73
2023/12/10 02:51:41;;;;;;;36.65;6.93;;;7.90;99.90;;;;;;5026143;28;20059;-74
2023/12/10 02:54:07;;;;;;;36.28;6.22;;;7.90;99.90;;;;;;4993702;28;20873;-74
2023/12/10 02:56:33;;;;;;;33.47;6.65;;;7.90;99.90;;;;;;4983924;28;20516;-73
2023/12/10 02:58:59;;;;;;;35.40;7.25;;;7.90;99.90;;;;;;4965947;28;20042;-71
2023/12/10 03:01:26;;;;;;;26.33;7.03;;;7.90;99.90;;;;;;4995272;28;20044;-72
2023/12/10 03:03:52;;;;;;;30.10;6.78;;;7.90;99.90;;;;;;5019403;28;20151;-70
2023/12/10 03:06:17;;;;;;;29.42;6.78;;;7.90;99.90;;;;;;5047746;28;20137;-71
2023/12/10 03:08:43;;;;;;;31.15;7.32;;;7.90;99.90;;;;;;4982400;28;20034;-72
2023/12/10 03:11:09;;;;;;;27.42;6.70;;;7.90;99.90;;;;;;5007320;28;20040;-72
2023/12/10 03:13:35;;;;;;;34.38;7.00;;;8.00;99.90;;;;;;5015246;28;20368;-73
2023/12/10 03:16:00;;;;;;;31.73;7.50;;;7.90;99.90;;;;;;4999690;28;20392;-72
2023/12/10 03:18:27;;;;;;;31.02;6.35;;;7.90;99.90;;;;;;4989338;28;20429;-72
2023/12/10 03:20:53;;;;;;;30.35;6.60;;;7.90;99.90;;;;;;4991821;28;20040;-72
2023/12/10 03:23:19;;;;;;;31.92;6.57;;;7.90;99.90;;;;;;4985236;28;20412;-72
2023/12/10 03:25:45;;;;;;;37.50;6.50;;;7.90;99.90;;;;;;4993176;28;20042;-72
2023/12/10 03:28:11;;;;;;;37.10;6.53;;;7.90;99.90;;;;;;4971245;28;20945;-71
2023/12/10 03:30:37;;;;;;;33.58;5.93;;;7.90;99.90;;;;;;4992899;28;20049;-72
2023/12/10 03:33:02;;;;;;;28.83;7.13;;;7.90;99.90;;;;;;4964507;28;20042;-72
2023/12/10 03:35:28;;;;;;;33.35;5.88;;;7.90;99.90;;;;;;4987135;28;20100;-72
2023/12/10 03:37:54;;;;;;;27.92;6.65;;;7.90;99.90;;;;;;5012649;28;20040;-72
2023/12/10 03:40:20;;;;;;;29.55;6.68;;;7.90;99.90;;;;;;4990015;28;20563;-72
2023/12/10 03:42:45;;;;;;;27.33;6.00;;;7.90;99.90;;;;;;4989111;28;20585;-71
2023/12/10 03:45:11;;;;;;;24.52;5.68;;;7.90;99.90;;;;;;5013899;28;20049;-71
2023/12/10 03:47:37;;;;;;;22.70;5.90;;;7.90;99.90;;;;;;4960655;28;20143;-71
2023/12/10 03:50:07;;;;;;;20.67;4.60;;;7.90;99.90;;;;;;5037848;28;20105;-71
2023/12/10 03:52:32;;;;;;;22.02;4.93;;;7.90;99.90;;;;;;5015882;28;20493;-72
2023/12/10 03:54:58;;;;;;;22.23;4.70;;;7.90;99.90;;;;;;5016114;28;20061;-72
2023/12/10 03:57:24;;;;;;;22.25;4.75;;;7.90;99.90;;;;;;5011891;28;20053;-72
2023/12/10 03:59:49;;;;;;;17.75;3.67;;;7.90;99.90;;;;;;4995287;28;20116;-73
2023/12/10 04:02:15;;;;;;;23.17;4.60;;;7.90;99.90;;;;;;4994241;28;20062;-72
2023/12/10 04:04:41;;;;;;;21.85;4.57;;;7.90;99.90;;;;;;4983160;28;20043;-73
2023/12/10 04:07:07;;;;;;;20.75;4.68;;;7.90;99.90;;;;;;4981325;28;20129;-73
2023/12/10 04:09:32;;;;;;;18.77;4.40;;;7.90;99.90;;;;;;5023181;28;20040;-72
2023/12/10 04:12:01;;;;;;;21.90;4.53;;;7.90;99.90;;;;;;5028851;27;20048;-71
2023/12/10 04:14:27;;;;;;;21.20;3.97;;;7.90;99.90;;;;;;4971862;28;20066;-73
2023/12/10 04:16:54;;;;;;;14.73;3.85;;;7.90;99.90;;;;;;4988403;28;20506;-71
2023/12/10 04:19:20;;;;;;;19.33;4.05;;;7.90;99.90;;;;;;5026300;28;20123;-71
2023/12/10 04:21:45;;;;;;;16.98;4.00;;;7.90;99.90;;;;;;4972149;28;20220;-71
2023/12/10 04:24:11;;;;;;;22.70;4.28;;;8.00;99.90;;;;;;4962464;28;20102;-72
2023/12/10 04:26:37;;;;;;;17.60;4.28;;;8.00;99.90;;;;;;4979198;28;20390;-72
2023/12/10 04:29:03;;;;;;;19.77;4.32;;;8.00;99.90;;;;;;5016758;28;20141;-72
2023/12/10 04:31:29;;;;;;;20.40;4.88;;;8.00;99.90;;;;;;4976961;28;20043;-72
2023/12/10 04:33:55;;;;;;;18.33;4.13;;;8.00;99.90;;;;;;4979187;28;20043;-71
2023/12/10 04:36:21;;;;;;;15.75;3.83;;;8.10;99.90;;;;;;4979036;28;20060;-71
2023/12/10 04:38:46;;;;;;;16.15;3.78;;;8.10;99.90;;;;;;5002201;28;20571;-73
2023/12/10 04:41:12;;;;;;;15.93;4.45;;;8.10;99.90;;;;;;4983612;28;20050;-72
2023/12/10 04:43:38;;;;;;;17.02;4.30;;;8.10;99.90;;;;;;5010051;28;20126;-72
2023/12/10 04:46:04;;;;;;;21.30;4.78;;;8.10;99.90;;;;;;5017751;28;20099;-72
2023/12/10 04:48:30;;;;;;;15.20;3.67;;;8.20;99.90;;;;;;4981711;28;20057;-72
2023/12/10 04:50:56;;;;;;;22.38;4.50;;;8.20;99.90;;;;;;4979338;28;20041;-73
2023/12/10 04:53:22;;;;;;;20.95;5.35;;;8.20;99.90;;;;;;5013470;28;20061;-71
2023/12/10 04:55:47;;;;;;;16.88;4.38;;;8.20;99.90;;;;;;5008870;28;20104;-72
2023/12/10 04:58:13;;;;;;;18.90;4.70;;;8.20;99.90;;;;;;4965595;28;20421;-73
2023/12/10 05:00:39;;;;;;;15.57;4.78;;;8.20;99.90;;;;;;4987404;28;20051;-72
2023/12/10 05:03:05;;;;;;;26.27;5.75;;;8.30;99.90;;;;;;5051490;27;20057;-72
2023/12/10 05:05:31;;;;;;;19.08;4.55;;;8.20;99.90;;;;;;4993747;28;20068;-72
2023/12/10 05:07:56;;;;;;;21.05;4.70;;;8.20;99.90;;;;;;5004307;28;20141;-72
2023/12/10 05:10:23;;;;;;;18.55;4.35;;;8.30;99.90;;;;;;4986089;28;20115;-72
2023/12/10 05:12:49;;;;;;;15.10;4.75;;;8.30;99.90;;;;;;4979388;28;20034;-72
2023/12/10 05:15:15;;;;;;;21.52;4.68;;;8.30;99.90;;;;;;5015095;28;20045;-72
2023/12/10 05:17:41;;;;;;;23.58;5.28;;;8.30;99.90;;;;;;4985276;28;20072;-72
2023/12/10 05:20:08;;;;;;;22.13;5.13;;;8.20;99.90;;;;;;4969108;28;20123;-72
2023/12/10 05:22:36;;;;;;;16.15;4.57;;;8.30;99.90;;;;;;5008698;28;20062;-73
2023/12/10 05:25:03;;;;;;;17.40;3.53;;;8.30;99.90;;;;;;4971393;28;20039;-72
2023/12/10 05:27:32;;;;;;;19.20;4.20;;;8.30;99.90;;;;;;4968292;28;20047;-72
2023/12/10 05:29:59;;;;;;;15.20;4.60;;;8.30;99.90;;;;;;4968491;28;20100;-72
2023/12/10 05:32:27;;;;;;;16.85;3.70;;;8.30;99.90;;;;;;4991466;28;20046;-72
2023/12/10 05:34:53;;;;;;;18.80;4.22;;;8.40;99.90;;;;;;5002974;28;20082;-72
2023/12/10 05:37:19;;;;;;;15.23;3.45;;;8.40;99.90;;;;;;5027774;27;20506;-73
2023/12/10 05:39:48;;;;;;;16.25;3.78;;;8.40;99.90;;;;;;4995706;28;20034;-72
2023/12/10 05:42:14;;;;;;;15.48;3.75;;;8.50;99.90;;;;;;4975115;28;20525;-71
2023/12/10 05:44:40;;;;;;;13.50;3.50;;;8.50;99.90;;;;;;4983996;28;20050;-72
2023/12/10 05:47:06;;;;;;;18.98;3.58;;;8.50;99.90;;;;;;5027816;28;20044;-72
2023/12/10 05:49:31;;;;;;;14.48;3.33;;;8.50;99.90;;;;;;4972736;28;20036;-72
2023/12/10 05:51:57;;;;;;;18.30;3.75;;;8.50;99.90;;;;;;4991189;28;20054;-72
2023/12/10 05:54:23;;;;;;;15.57;4.20;;;8.50;99.90;;;;;;5039709;27;20723;-72
2023/12/10 05:56:48;;;;;;;22.95;4.50;;;8.50;99.90;;;;;;5001019;28;20053;-73
2023/12/10 05:59:15;;;;;;;16.90;3.45;;;8.50;99.90;;;;;;5028646;28;20050;-73
2023/12/10 06:01:42;;;;;;;17.42;4.18;;;8.50;99.90;;;;;;4994359;28;20070;-72
2023/12/10 06:04:08;;;;;;;16.27;4.68;;;8.60;99.90;;;;;;4979672;28;20482;-73
2023/12/10 06:06:37;;;;;;;22.58;4.82;;;8.60;99.90;;;;;;5021354;28;20046;-73
2023/12/10 06:09:02;;;;;;;22.15;4.65;;;8.60;99.90;;;;;;4992660;28;20061;-73
2023/12/10 06:11:29;;;;;;;24.65;4.82;;;8.60;99.90;;;;;;4969502;28;20590;-75
2023/12/10 06:13:55;;;;;;;21.00;5.90;;;8.60;99.90;;;;;;4983163;28;20045;-76
2023/12/10 06:16:21;;;;;;;19.10;4.43;;;8.60;99.90;;;;;;4980010;28;20052;-74
2023/12/10 06:18:47;;;;;;;23.80;5.32;;;8.60;99.90;;;;;;4990075;28;20050;-75
2023/12/10 06:21:13;;;;;;;24.55;5.55;;;8.60;99.90;;;;;;4996289;28;20040;-75
2023/12/10 06:23:39;;;;;;;24.35;5.32;;;8.70;99.90;;;;;;4994893;28;20490;-74
2023/12/10 06:26:04;;;;;;;30.42;6.47;;;8.70;99.90;;;;;;5005628;28;20047;-74
2023/12/10 06:28:30;;;;;;;29.08;6.60;;;8.70;99.90;;;;;;5006291;28;20049;-76
2023/12/10 06:30:58;;;;;;;28.33;5.70;;;8.70;99.90;;;;;;5011617;28;20044;-75
2023/12/10 06:33:23;;;;;;;33.22;7.20;;;8.70;99.90;;;;;;5046032;28;20583;-76
2023/12/10 06:35:50;;;;;;;35.10;7.53;;;8.70;99.90;;;;;;5005636;28;20258;-76
2023/12/10 06:38:15;;;;;;;29.33;6.78;;;8.70;99.90;;;;;;4976399;28;20460;-76
2023/12/10 06:40:41;;;;;;;31.30;7.13;;;8.70;99.90;;;;;;4965440;28;20031;-77
2023/12/10 06:43:07;;;;;;;29.45;6.32;;;8.70;99.90;;;;;;4994676;28;20121;-77
2023/12/10 06:45:33;;;;;;;28.60;6.35;;;8.70;99.90;;;;;;4997646;28;20548;-77
2023/12/10 06:47:59;;;;;;;22.83;5.28;;;8.70;99.90;;;;;;5046463;28;20137;-77
2023/12/10 06:50:26;;;;;;;24.45;5.70;;;8.70;99.90;;;;;;5001466;28;20387;-76
2023/12/10 06:52:52;;;;;;;30.02;6.40;;;8.70;99.90;;;;;;5005790;28;20078;-76
2023/12/10 06:55:17;;;;;;;31.20;7.40;;;8.70;99.90;;;;;;4979933;28;20225;-76
2023/12/10 06:57:43;;;;;;;36.15;6.82;;;8.60;99.90;;;;;;4989285;28;20131;-77
2023/12/10 07:00:10;;;;;;;24.77;6.45;;;8.60;99.90;;;;;;5003514;28;20046;-76
2023/12/10 07:02:36;;;;;;;33.88;6.75;;;8.60;99.90;;;;;;5028027;28;20036;-73
2023/12/10 07:05:01;;;;;;;35.53;7.63;;;8.60;99.90;;;;;;5030401;28;20048;-73
2023/12/10 07:07:27;;;;;;;39.65;7.47;;;8.60;99.90;;;;;;5003009;28;20046;-73
2023/12/10 07:09:53;;;;;;;32.28;8.05;;;8.60;99.90;;;;;;5013659;28;20100;-75
2023/12/10 07:12:19;;;;;;;32.20;7.50;;;8.60;99.90;;;;;;4985319;28;20036;-73
2023/12/10 07:14:44;;;;;;;34.13;7.05;;;8.60;99.90;;;;;;5027098;28;20046;-72
2023/12/10 07:17:14;;;;;;;41.05;9.02;;;8.60;99.90;;;;;;4965583;28;20042;-73
2023/12/10 07:19:39;;;;;;;38.03;7.55;;;8.60;99.90;;;;;;4997413;28;20449;-73
2023/12/10 07:22:05;;;;;;;44.55;7.97;;;8.60;99.90;;;;;;5013360;28;20050;-72
2023/12/10 07:24:31;;;;;;;29.95;6.18;;;8.60;99.90;;;;;;5002978;28;20062;-72
2023/12/10 07:26:57;;;;;;;31.20;6.50;;;8.60;99.90;;;;;;4984461;28;20065;-72
2023/12/10 07:29:23;;;;;;;36.33;7.10;;;8.60;99.90;;;;;;4992023;28;20041;-72
2023/12/10 07:31:49;;;;;;;23.75;5.63;;;8.60;99.90;;;;;;4963803;28;20038;-72
2023/12/10 07:34:15;;;;;;;30.85;5.53;;;8.60;99.90;;;;;;5007024;28;20043;-72
2023/12/10 07:36:41;;;;;;;20.02;5.05;;;8.60;99.90;;;;;;5044760;27;20063;-72
2023/12/10 07:39:09;;;;;;;20.95;5.15;;;8.60;99.90;;;;;;4982281;28;20046;-72
2023/12/10 07:41:35;;;;;;;22.65;5.03;;;8.60;99.90;;;;;;5002515;28;20036;-72
2023/12/10 07:44:01;;;;;;;16.13;4.55;;;8.60;99.90;;;;;;5001951;28;20049;-72
2023/12/10 07:46:26;;;;;;;29.50;6.13;;;8.60;99.90;;;;;;5048002;27;20046;-72
2023/12/10 07:48:52;;;;;;;23.38;5.30;;;8.50;99.90;;;;;;4992560;28;20478;-72
2023/12/10 07:51:18;;;;;;;23.63;5.60;;;8.50;99.90;;;;;;5000194;28;20406;-72
2023/12/10 07:53:44;;;;;;;27.25;5.55;;;8.50;99.90;;;;;;4998077;28;20072;-72
2023/12/10 07:56:10;;;;;;;34.47;5.53;;;8.50;99.90;;;;;;4991024;28;20105;-71
2023/12/10 07:58:36;;;;;;;29.15;5.40;;;8.50;99.90;;;;;;4984771;28;20073;-71
2023/12/10 08:01:02;;;;;;;21.90;5.93;;;8.50;99.90;;;;;;4973179;28;20058;-71
2023/12/10 08:03:28;;;;;;;24.85;5.15;;;8.50;99.90;;;;;;5030218;27;20133;-71
2023/12/10 08:05:53;;;;;;;26.27;5.40;;;8.50;99.90;;;;;;4984191;28;20124;-71
2023/12/10 08:08:19;;;;;;;20.98;5.10;;;8.50;99.90;;;;;;4966297;28;20389;-71
2023/12/10 08:10:46;;;;;;;28.23;5.72;;;8.50;99.90;;;;;;4980668;28;20042;-71
2023/12/10 08:13:12;;;;;;;24.02;5.55;;;8.50;99.90;;;;;;4997222;28;20038;-71
2023/12/10 08:15:37;;;;;;;30.00;4.82;;;8.50;99.90;;;;;;5003887;28;20133;-72
2023/12/10 08:18:04;;;;;;;30.77;5.93;;;8.40;99.90;;;;;;5030218;27;20050;-71
2023/12/10 08:20:29;;;;;;;25.08;4.85;;;8.40;99.90;;;;;;4963663;28;20129;-71
2023/12/10 08:22:55;;;;;;;22.95;4.63;;;8.40;99.90;;;;;;4993729;28;20135;-71
2023/12/10 08:25:21;;;;;;;23.42;4.68;;;8.40;99.90;;;;;;5040530;27;20055;-71
2023/12/10 08:27:47;;;;;;;21.02;4.75;;;8.40;99.90;;;;;;4993952;28;20042;-71
2023/12/10 08:30:13;;;;;;;30.05;6.13;;;8.40;99.90;;;;;;5001399;28;20055;-71
2023/12/10 08:32:39;;;;;;;20.77;4.28;;;8.40;99.90;;;;;;4997420;28;20046;-71
2023/12/10 08:35:05;;;;;;;16.73;3.95;;;8.40;99.90;;;;;;4995571;28;20107;-71
2023/12/10 08:37:31;;;;;;;23.92;4.15;;;8.40;99.90;;;;;;4981329;28;20086;-71
2023/12/10 08:39:57;;;;;;;21.10;3.65;;;8.40;99.90;;;;;;4984283;28;20058;-71
2023/12/10 08:42:24;;;;;;;20.05;3.83;;;8.40;99.90;;;;;;4981329;28;20056;-71
2023/12/10 08:44:50;;;;;;;23.45;4.68;;;8.40;99.90;;;;;;4967957;28;20534;-71
2023/12/10 08:47:15;;;;;;;24.50;4.55;;;8.30;99.90;;;;;;5045696;28;20055;-71
2023/12/10 08:49:41;;;;;;;28.05;4.80;;;8.30;99.90;;;;;;5010254;28;20490;-71
2023/12/10 08:52:07;;;;;;;25.23;5.25;;;8.30;99.90;;;;;;4980814;28;20103;-70
2023/12/10 08:54:33;;;;;;;23.65;5.18;;;8.30;99.90;;;;;;5032957;28;20444;-71
2023/12/10 08:56:58;;;;;;;24.00;4.70;;;8.30;99.90;;;;;;5014721;28;20074;-70
2023/12/10 08:59:24;;;;;;;20.77;4.75;;;8.40;99.90;;;;;;4977629;28;20060;-70
2023/12/10 09:01:50;;;;;;;22.67;4.18;;;8.40;99.90;;;;;;4983213;28;20042;-71
2023/12/10 09:04:15;;;;;;;20.35;4.32;;;8.40;99.90;;;;;;4995662;28;20502;-71
2023/12/10 09:06:41;;;;;;;20.83;4.57;;;8.40;99.90;;;;;;5016979;28;20032;-70
2023/12/10 09:09:07;;;;;;;27.10;4.85;;;8.30;99.90;;;;;;5020928;28;20051;-70
2023/12/10 09:11:36;;;;;;;26.40;4.38;;;8.40;99.90;;;;;;5027254;28;20067;-70
2023/12/10 09:14:02;;;;;;;23.27;4.72;;;8.30;99.90;;;;;;5027868;28;20065;-70
2023/12/10 09:16:27;;;;;;;23.35;4.95;;;8.40;99.90;;;;;;4963340;28;20494;-70
2023/12/10 09:18:53;;;;;;;28.73;5.78;;;8.40;99.90;;;;;;5023946;28;20212;-70
2023/12/10 09:21:19;;;;;;;29.33;6.90;;;8.40;99.90;;;;;;4977447;28;20092;-70
2023/12/10 09:23:45;;;;;;;30.13;5.85;;;8.40;99.90;;;;;;5022927;28;20038;-70
2023/12/10 09:26:11;;;;;;;26.42;5.45;;;8.40;99.90;;;;;;4986569;28;20052;-70
2023/12/10 09:28:37;;;;;;;24.15;5.68;;;8.40;99.90;;;;;;4977293;28;20034;-70
2023/12/10 09:31:06;;;;;;;29.25;5.00;;;8.40;99.90;;;;;;4978326;28;20043;-70
2023/12/10 09:33:31;;;;;;;27.25;5.63;;;8.40;99.90;;;;;;4990531;28;20506;-71
2023/12/10 09:35:57;;;;;;;24.30;4.45;;;8.40;99.90;;;;;;4994837;28;20101;-70
2023/12/10 09:38:23;;;;;;;25.25;5.38;;;8.40;99.90;;;;;;4977728;28;20599;-70
2023/12/10 09:40:49;;;;;;;26.40;6.28;;;8.40;99.90;;;;;;5000191;28;20115;-70
2023/12/10 09:43:15;;;;;;;37.30;7.35;;;8.50;99.90;;;;;;5000323;28;20699;-70
2023/12/10 09:45:40;;;;;;;28.52;6.60;;;8.40;99.90;;;;;;4979325;28;20119;-70
2023/12/10 09:48:07;;;;;;;35.38;7.28;;;8.40;99.90;;;;;;4981817;28;20042;-74
2023/12/10 09:50:40;;;;;;;43.10;7.75;;;8.40;99.90;;;;;;4992205;28;20154;-74
2023/12/10 09:53:07;;;;;;;42.38;7.70;;;8.40;99.90;;;;;;4999653;28;20042;-74
2023/12/10 09:55:32;;;;;;;42.38;9.02;;;8.40;99.90;;;;;;4983380;28;20050;-70
2023/12/10 09:57:58;;;;;;;42.85;8.52;;;8.40;99.90;;;;;;5014209;28;20047;-70
2023/12/10 10:00:25;;;;;;;35.80;7.95;;;8.50;99.90;;;;;;4997502;28;20409;-70
2023/12/10 10:02:51;;;;;;;42.60;9.75;;;8.50;99.90;;;;;;4972902;28;20038;-70
2023/12/10 10:05:17;;;;;;;42.33;8.70;;;8.50;99.90;;;;;;4967540;28;20102;-70
2023/12/10 10:07:43;;;;;;;38.72;9.07;;;8.50;99.90;;;;;;4997514;28;20828;-70
2023/12/10 10:10:11;;;;;;;42.75;8.63;;;8.50;99.90;;;;;;4985131;28;20443;-70
2023/12/10 10:12:37;;;;;;;44.55;9.23;;;8.50;99.90;;;;;;5000200;28;20085;-70
2023/12/10 10:15:06;;;;;;;34.75;7.75;;;8.50;99.90;;;;;;5008340;28;20066;-70
2023/12/10 10:17:35;;;;;;;35.00;7.63;;;8.50;99.90;;;;;;4962627;28;20100;-70
2023/12/10 10:20:04;;;;;;;47.63;9.05;;;8.50;99.90;;;;;;4977244;28;20046;-70
2023/12/10 10:22:31;;;;;;;39.83;8.32;;;8.50;99.90;;;;;;5016492;28;20689;-70
2023/12/10 10:24:57;;;;;;;42.50;8.13;;;8.50;99.90;;;;;;4996060;28;20103;-69
2023/12/10 10:27:24;;;;;;;38.53;8.57;;;8.50;99.90;;;;;;5017894;28;20516;-69
2023/12/10 10:29:53;;;;;;;46.20;9.23;;;8.50;99.90;;;;;;4966248;28;20573;-70
2023/12/10 10:32:23;;;;;;;37.95;7.95;;;8.50;99.90;;;;;;4960734;28;20166;-69
2023/12/10 10:34:49;;;;;;;;;;;8.60;99.90;;;;;;4985295;28;20073;-70
2023/12/10 10:37:17;;;;;;;38.85;7.95;;;8.50;99.90;;;;;;5004756;28;21059;-70
2023/12/10 10:39:49;;;;;;;36.47;7.90;;;8.60;99.90;;;;;;4980076;28;20401;-70
2023/12/10 10:42:17;;;;;;;34.25;7.68;;;8.60;99.90;;;;;;4983250;28;20054;-70
2023/12/10 10:44:43;;;;;;;32.03;7.20;;;8.60;99.90;;;;;;5015802;28;20569;-70
2023/12/10 10:47:09;;;;;;;38.35;8.10;;;8.60;99.90;;;;;;4984839;28;20513;-69
2023/12/10 10:49:44;;;;;;;33.42;7.72;;;8.60;99.90;;;;;;5009417;28;20168;-70
2023/12/10 10:52:15;;;;;;;34.83;7.63;;;8.60;99.90;;;;;;5016088;28;20057;-69
2023/12/10 10:54:42;;;;;;;30.00;7.20;;;8.60;99.90;;;;;;4982616;28;20034;-69
2023/12/10 10:57:08;;;;;;;35.25;7.70;;;8.60;99.90;;;;;;4968253;28;20050;-69
2023/12/10 10:59:34;;;;;;;27.00;6.78;;;8.60;99.90;;;;;;5013106;28;20060;-69
2023/12/10 11:02:11;;;;;;;34.97;6.82;;;8.70;99.90;;;;;;4983459;28;20057;-69
2023/12/10 11:04:41;;;;;;;34.47;7.35;;;8.60;99.90;;;;;;5002090;28;20042;-69
2023/12/10 11:07:07;;;;;;;26.02;6.57;;;8.70;99.90;;;;;;4979752;28;20133;-72
2023/12/10 11:09:58;;;;;;;37.75;8.23;;;8.70;99.90;;;;;;5014943;28;20046;-69
2023/12/10 11:12:57;;;;;;;25.45;6.07;;;8.70;99.90;;;;;;4978872;28;20916;-71
2023/12/10 11:15:24;;;;;;;37.28;7.72;;;8.70;99.90;;;;;;5010544;28;20054;-71
2023/12/10 11:18:00;;;;;;;32.70;6.05;;;8.70;99.90;;;;;;4982871;28;20092;-71
2023/12/10 11:20:53;;;;;;;25.65;6.63;;;8.70;99.90;;;;;;5007376;28;20505;-71
2023/12/10 11:23:20;;;;;;;32.60;6.22;;;8.80;99.90;;;;;;4981579;28;20054;-71
2023/12/10 11:25:47;;;;;;;26.02;5.85;;;8.80;99.90;;;;;;5009334;28;20107;-71
2023/12/10 11:28:14;;;;;;;34.63;6.55;;;8.70;99.90;;;;;;4995741;28;20201;-71
2023/12/10 11:30:45;;;;;;;30.85;6.35;;;8.70;99.90;;;;;;4963624;28;20502;-71
2023/12/10 11:33:13;;;;;;;26.17;6.60;;;8.80;99.90;;;;;;5009622;28;20134;-71
2023/12/10 11:35:41;;;;;;;27.52;5.43;;;8.80;99.90;;;;;;4992011;28;20038;-71
2023/12/10 11:38:07;;;;;;;29.92;6.57;;;8.90;99.90;;;;;;4978524;28;20049;-71
2023/12/10 11:40:36;;;;;;;22.05;5.78;;;8.90;99.90;;;;;;4964745;28;20275;-71
2023/12/10 11:43:08;;;;;;;28.60;6.28;;;8.90;99.90;;;;;;4967004;28;20501;-71
2023/12/10 11:45:35;;;;;;;32.95;6.30;;;8.90;99.90;;;;;;4965506;28;20103;-70
2023/12/10 11:48:03;;;;;;;27.77;6.38;;;8.90;99.90;;;;;;4957216;28;20100;-70
2023/12/10 11:50:36;;;;;;;27.35;5.97;;;8.90;99.90;;;;;;4997369;28;20038;-70
2023/12/10 11:53:02;;;;;;;26.80;6.30;;;8.90;99.90;;;;;;4979354;28;20467;-70
2023/12/10 11:55:30;;;;;;;24.38;5.40;;;8.90;99.90;;;;;;4983675;28;20053;-70
2023/12/10 11:57:57;;;;;;;31.15;5.90;;;8.90;99.90;;;;;;4972787;28;20053;-70
2023/12/10 12:00:24;;;;;;;27.58;6.07;;;8.90;99.90;;;;;;4982025;28;20147;-70
2023/12/10 12:02:52;;;;;;;27.13;5.82;;;8.90;99.90;;;;;;5014329;28;20082;-70
2023/12/10 12:05:19;;;;;;;20.45;5.28;;;8.90;99.90;;;;;;5010130;28;20047;-70
2023/12/10 12:07:48;;;;;;;28.95;6.32;;;8.90;99.90;;;;;;4981158;28;20490;-76
2023/12/10 12:10:13;;;;;;;25.80;6.50;;;8.90;99.90;;;;;;4963873;28;20378;-75
2023/12/10 12:12:41;;;;;;;30.98;5.93;;;8.90;99.90;;;;;;4981268;28;20118;-70
2023/12/10 12:15:09;;;;;;;29.27;5.90;;;8.90;99.90;;;;;;5009571;28;20082;-70
2023/12/10 12:17:37;;;;;;;30.17;6.80;;;8.80;99.90;;;;;;5002727;28;20053;-70
2023/12/10 12:20:16;;;;;;;25.50;6.47;;;8.80;99.90;;;;;;4981947;28;20062;-70
2023/12/10 12:22:42;;;;;;;24.00;6.15;;;8.80;99.90;;;;;;5012220;28;20131;-70
2023/12/10 12:25:08;;;;;;;30.95;6.30;;;8.80;99.90;;;;;;4962247;28;20081;-70
2023/12/10 12:27:34;;;;;;;31.80;7.75;;;8.80;99.90;;;;;;4981742;28;20058;-70
2023/12/10 12:30:00;;;;;;;28.15;5.88;;;8.90;99.90;;;;;;4994399;28;20210;-70
2023/12/10 12:32:25;;;;;;;26.48;6.10;;;8.90;99.90;;;;;;5009823;28;20075;-70
2023/12/10 12:34:51;;;;;;;37.67;7.40;;;8.90;99.90;;;;;;4989861;28;20053;-70
2023/12/10 12:37:17;;;;;;;24.30;6.05;;;9.00;99.90;;;;;;4967237;28;20053;-69
2023/12/10 12:39:43;;;;;;;21.38;5.53;;;8.90;99.90;;;;;;4977278;28;20046;-70
2023/12/10 12:42:09;;;;;;;24.63;6.57;;;9.00;99.90;;;;;;4964781;28;20453;-70
2023/12/10 12:44:34;;;;;;;22.65;5.38;;;8.90;99.90;;;;;;4978077;28;20106;-70